Time;durP1;ratioP1;P1;durP2;ratioP2;P2;SDS_P1;SDS_P2;PMS_P1;PMS_P2;Temp;Humidity;BMP_temperature;BMP_pressure;BME280_temperature;BME280_humidity;BME280_pressure;Samples;Min_cycle;Max_cycle;Signal;HPM_P1;HPM_P2
2021/09/27 00:00:20;;;;;;;7.27;6.77;;;;;;;16.06;98.13;95843.47;5014572;28;20693;-69
2021/09/27 00:02:48;;;;;;;7.47;6.47;;;;;;;16.04;98.14;95845.53;5023639;28;20298;-69
2021/09/27 00:05:18;;;;;;;5.40;5.00;;;;;;;16.02;98.11;95853.75;5021102;28;20231;-68
2021/09/27 00:07:47;;;;;;;6.63;6.13;;;;;;;16.03;98.52;95838.59;5020164;28;20730;-69
2021/09/27 00:10:20;;;;;;;7.07;6.47;;;;;;;16.04;98.18;95842.88;5018436;28;20302;-69
2021/09/27 00:12:49;;;;;;;6.73;6.33;;;;;;;16.04;98.26;95840.22;5011414;28;20216;-69
2021/09/27 00:15:26;;;;;;;6.90;6.33;;;;;;;16.04;98.28;95834.91;5011389;28;20275;-69
2021/09/27 00:17:55;;;;;;;8.37;7.73;;;;;;;16.01;98.01;95828.16;5029336;28;20226;-69
2021/09/27 00:20:23;;;;;;;7.67;7.07;;;;;;;16.00;98.04;95834.50;5019752;28;20224;-69
2021/09/27 00:22:52;;;;;;;8.53;7.93;;;;;;;16.02;98.23;95835.09;5019885;28;20243;-69
2021/09/27 00:25:22;;;;;;;7.33;6.77;;;;;;;16.01;98.32;95830.81;5018921;28;20219;-69
2021/09/27 00:27:50;;;;;;;7.53;7.00;;;;;;;16.01;98.14;95830.81;5020581;28;20767;-68
2021/09/27 00:30:20;;;;;;;7.90;7.37;;;;;;;16.01;98.30;95828.16;5026070;28;20230;-69
2021/09/27 00:32:49;;;;;;;7.40;6.90;;;;;;;16.01;97.95;95830.81;5025313;28;20254;-68
2021/09/27 00:35:21;;;;;;;7.40;6.70;;;;;;;15.99;98.12;95835.50;5019329;28;20675;-69
2021/09/27 00:37:49;;;;;;;6.67;6.17;;;;;;;15.98;98.31;95830.41;5018408;28;20650;-69
2021/09/27 00:40:25;;;;;;;7.43;6.83;;;;;;;15.97;98.14;95831.44;5026814;28;20222;-69
2021/09/27 00:42:54;;;;;;;8.10;7.40;;;;;;;15.97;98.35;95828.78;5023712;28;20215;-69
2021/09/27 00:45:28;;;;;;;8.47;7.77;;;;;;;15.98;98.19;95830.41;5016436;28;20248;-69
2021/09/27 00:47:57;;;;;;;8.77;8.07;;;;;;;15.97;98.37;95831.44;5026052;28;20277;-69
2021/09/27 00:50:31;;;;;;;9.10;8.40;;;;;;;15.96;98.09;95830.63;5024720;28;20227;-69
2021/09/27 00:53:02;;;;;;;7.77;7.20;;;;;;;15.91;98.32;95828.63;5022163;28;20298;-69
2021/09/27 00:55:30;;;;;;;7.77;7.07;;;;;;;15.89;98.22;95820.00;5040335;28;20258;-69
2021/09/27 00:57:59;;;;;;;9.50;8.70;;;;;;;15.88;98.25;95817.56;5026373;28;20642;-69
2021/09/27 01:00:29;;;;;;;8.03;7.33;;;;;;;15.87;98.42;95813.28;5013305;28;20310;-70
2021/09/27 01:02:57;;;;;;;8.97;8.27;;;;;;;15.90;98.45;95820.81;5025704;28;20231;-69
2021/09/27 01:05:26;;;;;;;8.43;7.87;;;;;;;15.86;98.15;95814.31;5021834;28;20231;-70
2021/09/27 01:08:02;;;;;;;8.90;8.10;;;;;;;15.85;98.23;95810.00;5010126;28;20678;-69
2021/09/27 01:10:45;;;;;;;10.33;9.33;;;;;;;15.83;98.31;95812.09;5020248;28;20216;-69
2021/09/27 01:13:50;;;;;;;7.07;6.53;;;;;;;15.77;98.38;95812.91;5022471;28;20239;-69
2021/09/27 01:16:29;;;;;;;6.90;6.40;;;;;;;15.74;98.25;95813.34;4991103;28;20677;-68
2021/09/27 01:19:13;;;;;;;7.90;6.07;;;;;;;15.71;98.56;95814.56;5015680;28;20838;-69
2021/09/27 01:21:49;;;;;;;8.37;7.73;;;;;;;15.70;98.61;95812.13;5022040;28;21434;-69
2021/09/27 01:24:57;;;;;;;8.23;7.67;;;;;;;15.68;98.53;95808.88;5018130;28;20247;-70
2021/09/27 01:27:51;;;;;;;8.40;7.80;;;;;;;15.64;98.54;95814.63;5021773;28;20650;-69
2021/09/27 01:30:34;;;;;;;8.47;7.77;;;;;;;15.61;98.21;95809.72;5016148;28;20224;-69
2021/09/27 01:33:07;;;;;;;8.60;7.83;;;;;;;15.58;98.83;95802.13;5019469;28;20655;-69
2021/09/27 01:35:48;;;;;;;8.87;8.03;;;;;;;15.56;98.61;95800.72;5015550;28;20718;-68
2021/09/27 01:38:26;;;;;;;6.40;5.97;;;;;;;15.52;98.68;95800.31;5005376;28;20319;-69
2021/09/27 01:41:28;;;;;;;7.67;7.17;;;;;;;15.46;98.44;95803.81;4998213;28;20690;-69
2021/09/27 01:44:13;;;;;;;7.07;6.57;;;;;;;15.44;98.65;95795.22;5001281;28;20211;-69
2021/09/27 01:46:48;;;;;;;6.83;6.33;;;;;;;15.41;98.74;95793.00;4997628;28;20228;-68
2021/09/27 01:49:22;;;;;;;7.27;6.77;;;;;;;15.38;98.59;95796.06;5003445;28;20712;-69
2021/09/27 01:51:57;;;;;;;9.10;8.07;;;;;;;15.36;98.46;95790.13;4996733;28;20278;-69
2021/09/27 01:54:34;;;;;;;6.03;5.63;;;;;;;15.34;98.71;95789.53;5000307;28;20243;-70
2021/09/27 01:57:13;;;;;;;7.63;7.10;;;;;;;15.29;98.36;95790.19;5009082;28;20235;-69
2021/09/27 01:59:49;;;;;;;6.97;6.47;;;;;;;15.27;98.36;95791.38;5006421;28;20603;-69
2021/09/27 02:02:23;;;;;;;8.40;7.70;;;;;;;15.23;98.34;95790.19;5006226;28;20649;-69
2021/09/27 02:05:02;;;;;;;7.07;6.40;;;;;;;15.19;98.43;95789.81;5005863;28;20302;-69
2021/09/27 02:07:35;;;;;;;6.73;6.13;;;;;;;15.17;98.38;95786.50;5003454;28;20490;-68
2021/09/27 02:10:08;;;;;;;8.27;7.77;;;;;;;15.13;98.34;95787.97;5002984;28;20220;-69
2021/09/27 02:12:44;;;;;;;7.37;6.73;;;;;;;15.06;98.30;95795.13;5003018;28;20240;-68
2021/09/27 02:15:15;;;;;;;6.87;6.33;;;;;;;14.99;98.22;95789.84;4994057;28;20224;-69
2021/09/27 02:17:51;;;;;;;11.00;6.57;;;;;;;14.93;98.11;95784.56;5000639;28;20224;-69
2021/09/27 02:20:28;;;;;;;6.93;6.33;;;;;;;14.85;98.08;95788.25;5001417;28;20247;-68
2021/09/27 02:23:03;;;;;;;6.47;5.80;;;;;;;14.80;98.13;95785.38;5002672;28;20311;-68
2021/09/27 02:25:34;;;;;;;6.30;5.90;;;;;;;14.77;98.18;95791.09;5006748;28;20224;-69
2021/09/27 02:28:04;;;;;;;4.80;4.50;;;;;;;14.71;98.06;95791.91;5001321;28;20703;-69
2021/09/27 02:30:41;;;;;;;3.80;3.60;;;;;;;14.66;98.00;95799.72;5001238;28;20319;-68
2021/09/27 02:33:18;;;;;;;3.67;3.47;;;;;;;14.58;97.59;95792.75;4999961;28;20610;-68
2021/09/27 02:35:54;;;;;;;4.93;4.63;;;;;;;14.60;97.84;95793.38;4995305;28;20307;-69
2021/09/27 02:38:27;;;;;;;7.47;7.00;;;;;;;14.66;98.39;95794.41;5004980;28;20247;-69
2021/09/27 02:41:02;;;;;;;7.47;6.97;;;;;;;14.64;98.46;95786.63;5000138;28;20571;-69
2021/09/27 02:43:31;;;;;;;7.03;6.57;;;;;;;14.63;98.58;95789.47;4998517;28;20666;-69
2021/09/27 02:46:00;;;;;;;9.50;8.70;;;;;;;14.65;98.64;95787.47;4991647;28;20230;-69
2021/09/27 02:48:34;;;;;;;7.93;7.13;;;;;;;14.66;98.81;95802.38;5001692;28;20263;-68
2021/09/27 02:51:05;;;;;;;8.70;7.83;;;;;;;14.67;98.94;95794.19;5002664;28;20254;-69
2021/09/27 02:53:33;;;;;;;7.63;7.07;;;;;;;14.69;99.08;95793.97;5001241;28;20282;-69
2021/09/27 02:56:17;;;;;;;8.57;7.50;;;;;;;14.69;99.20;95797.44;4994719;28;20228;-69
2021/09/27 02:58:53;;;;;;;9.00;8.20;;;;;;;14.66;99.18;95794.41;5001138;28;20252;-69
2021/09/27 03:01:28;;;;;;;8.57;7.87;;;;;;;14.63;99.11;95790.31;5007391;28;20231;-68
2021/09/27 03:04:06;;;;;;;8.53;7.87;;;;;;;14.58;99.19;95791.94;5022522;28;20230;-69
2021/09/27 03:06:54;;;;;;;7.90;7.40;;;;;;;14.50;98.78;95793.78;5018817;28;20651;-69
2021/09/27 03:09:34;;;;;;;7.17;6.67;;;;;;;14.49;99.08;95788.69;5030058;28;20253;-69
2021/09/27 03:12:19;;;;;;;7.13;6.53;;;;;;;14.45;99.12;95793.59;5018723;28;20630;-69
2021/09/27 03:15:24;;;;;;;6.63;6.20;;;;;;;14.43;98.74;95792.94;5013691;28;20222;-68
2021/09/27 03:18:00;;;;;;;8.87;8.20;;;;;;;14.41;98.70;95787.00;4993189;28;22249;-68
2021/09/27 03:20:56;;;;;;;8.00;7.40;;;;;;;14.39;98.89;95782.94;5015196;28;20212;-68
2021/09/27 03:23:35;;;;;;;7.50;6.93;;;;;;;14.38;98.93;95787.44;5017999;28;20224;-69
2021/09/27 03:26:15;;;;;;;7.63;7.00;;;;;;;14.44;98.92;95786.59;5021326;28;20212;-69
2021/09/27 03:28:52;;;;;;;7.57;6.90;;;;;;;14.46;98.95;95781.94;5022745;28;20285;-69
2021/09/27 03:31:26;;;;;;;7.67;7.07;;;;;;;14.50;98.83;95791.13;5018391;28;20643;-69
2021/09/27 03:34:07;;;;;;;9.43;8.37;;;;;;;14.54;98.90;95782.75;5027507;28;20734;-69
2021/09/27 03:36:51;;;;;;;7.77;7.17;;;;;;;14.51;98.99;95784.78;5024610;28;20224;-69
2021/09/27 03:39:32;;;;;;;8.83;7.70;;;;;;;14.48;99.11;95782.56;5021482;28;20624;-69
2021/09/27 03:42:05;;;;;;;13.47;8.47;;;;;;;14.49;98.99;95789.50;5018238;28;20230;-68
2021/09/27 03:44:42;;;;;;;6.83;6.43;;;;;;;14.47;99.00;95782.75;5015513;28;20228;-69
2021/09/27 03:47:15;;;;;;;7.37;6.77;;;;;;;14.43;98.93;95781.50;5009456;28;21194;-69
2021/09/27 03:49:49;;;;;;;6.83;6.33;;;;;;;14.38;98.74;95782.13;5018723;28;20219;-69
2021/09/27 03:52:23;;;;;;;6.93;6.30;;;;;;;14.39;99.16;95789.06;5011824;28;20736;-69
2021/09/27 03:54:57;;;;;;;7.97;7.33;;;;;;;14.34;98.80;95785.38;5003429;28;20697;-69
2021/09/27 03:57:32;;;;;;;7.20;6.70;;;;;;;14.31;98.70;95786.59;5014568;28;20651;-69
2021/09/27 04:00:04;;;;;;;6.03;5.43;;;;;;;14.32;98.59;95787.44;5017199;28;20227;-69
2021/09/27 04:02:41;;;;;;;5.60;5.10;;;;;;;14.33;98.56;95783.75;5025965;28;20223;-71
2021/09/27 04:05:16;;;;;;;7.10;6.70;;;;;;;14.33;98.64;95795.19;5024942;28;20708;-71
2021/09/27 04:08:02;;;;;;;8.30;7.77;;;;;;;14.33;98.50;95787.22;5015246;28;20282;-71
2021/09/27 04:10:39;;;;;;;6.80;6.30;;;;;;;14.32;98.46;95790.06;5026178;28;20305;-71
2021/09/27 04:13:17;;;;;;;6.73;6.13;;;;;;;14.29;98.64;95799.28;5020656;28;20228;-71
2021/09/27 04:15:57;;;;;;;7.53;7.03;;;;;;;14.27;98.53;95796.00;5017117;28;20219;-71
2021/09/27 04:18:34;;;;;;;5.80;5.50;;;;;;;14.30;98.43;95797.44;5016444;28;20231;-71
2021/09/27 04:21:08;;;;;;;5.50;5.20;;;;;;;14.30;98.18;95794.78;5019563;28;20253;-71
2021/09/27 04:23:47;;;;;;;8.17;7.40;;;;;;;14.29;98.34;95799.28;5014058;28;20216;-71
2021/09/27 04:26:34;;;;;;;7.57;6.77;;;;;;;14.27;98.45;95790.69;5030401;28;20227;-71
2021/09/27 04:29:15;;;;;;;9.07;8.43;;;;;;;14.25;98.43;95792.72;5019703;28;20231;-71
2021/09/27 04:31:51;;;;;;;6.67;6.20;;;;;;;14.28;98.42;95787.03;5019718;28;20235;-71
2021/09/27 04:34:45;;;;;;;9.07;7.43;;;;;;;14.29;98.39;95793.97;5023003;28;20710;-71
2021/09/27 04:37:17;;;;;;;7.37;6.73;;;;;;;14.30;98.46;95790.28;5022686;28;20251;-71
2021/09/27 04:39:47;;;;;;;7.20;6.70;;;;;;;14.30;98.29;95790.28;5018907;28;20289;-71
2021/09/27 04:42:32;;;;;;;6.87;6.40;;;;;;;14.29;98.51;95788.66;5020566;28;20220;-71
2021/09/27 04:45:18;;;;;;;7.80;7.20;;;;;;;14.31;98.55;95785.78;5015893;28;20317;-71
2021/09/27 04:47:58;;;;;;;5.37;5.00;;;;;;;14.34;98.27;95785.38;5018714;28;20251;-71
2021/09/27 04:50:38;;;;;;;5.93;5.53;;;;;;;14.36;98.33;95794.78;5021058;28;20219;-71
2021/09/27 04:53:19;;;;;;;5.40;4.97;;;;;;;14.38;98.17;95798.06;5011608;28;20704;-68
2021/09/27 04:55:57;;;;;;;5.67;5.27;;;;;;;14.39;98.42;95805.00;5030813;28;20218;-69
2021/09/27 04:58:41;;;;;;;6.17;5.73;;;;;;;14.41;98.17;95808.25;5017402;28;20227;-69
2021/09/27 05:01:25;;;;;;;6.30;5.47;;;;;;;14.38;97.97;95803.34;5016145;28;20293;-69
2021/09/27 05:04:16;;;;;;;5.80;5.30;;;;;;;14.40;97.76;95803.16;5011642;28;20212;-68
2021/09/27 05:07:16;;;;;;;6.17;5.67;;;;;;;14.38;97.46;95803.34;5014956;28;20590;-68
2021/09/27 05:09:59;;;;;;;7.27;6.60;;;;;;;14.35;97.84;95800.28;5010602;28;20231;-69
2021/09/27 05:12:41;;;;;;;5.57;5.27;;;;;;;14.33;98.04;95797.84;5023733;28;20227;-68
2021/09/27 05:15:25;;;;;;;6.33;5.93;;;;;;;14.36;98.12;95796.63;5010983;28;20265;-68
2021/09/27 05:18:19;;;;;;;5.77;5.37;;;;;;;14.38;98.20;95797.25;5024618;28;20248;-66
2021/09/27 05:21:25;;;;;;;7.80;7.00;;;;;;;14.39;98.31;95805.00;5025966;28;20216;-65
2021/09/27 05:24:16;;;;;;;6.20;5.70;;;;;;;14.41;98.24;95794.97;5011633;28;20222;-66
2021/09/27 05:27:00;;;;;;;6.63;6.23;;;;;;;14.42;98.22;95798.44;5018530;28;20223;-66
2021/09/27 05:29:44;;;;;;;5.63;5.23;;;;;;;14.42;98.19;95796.59;5037633;28;20232;-66
2021/09/27 05:32:27;;;;;;;6.00;5.60;;;;;;;14.43;98.45;95805.38;5039528;28;20222;-66
2021/09/27 05:35:10;;;;;;;6.07;5.67;;;;;;;14.46;98.45;95800.53;5006686;28;20321;-65
2021/09/27 05:37:55;;;;;;;8.13;6.93;;;;;;;14.47;98.29;95804.81;5022118;28;20277;-66
2021/09/27 05:40:31;;;;;;;6.17;5.60;;;;;;;14.47;98.30;95804.81;5023889;28;20336;-66
2021/09/27 05:43:12;;;;;;;7.00;6.40;;;;;;;14.48;98.41;95806.47;5046486;28;20234;-66
2021/09/27 05:45:50;;;;;;;7.43;6.73;;;;;;;14.51;98.01;95806.03;5018943;28;20242;-66
2021/09/27 05:48:29;;;;;;;7.60;7.10;;;;;;;14.51;98.12;95811.34;5025676;28;20223;-65
2021/09/27 05:51:05;;;;;;;6.87;6.47;;;;;;;14.55;97.88;95808.31;5021221;28;20277;-66
2021/09/27 05:53:47;;;;;;;11.00;6.10;;;;;;;14.56;97.84;95809.94;5026393;28;20601;-66
2021/09/27 05:56:24;;;;;;;8.23;7.43;;;;;;;14.58;97.81;95808.69;5031745;28;20278;-66
2021/09/27 05:59:03;;;;;;;7.67;7.10;;;;;;;14.59;97.77;95812.97;5011726;28;20231;-66
2021/09/27 06:01:43;;;;;;;6.50;6.10;;;;;;;14.60;97.79;95805.84;5033042;28;20223;-67
2021/09/27 06:04:25;;;;;;;7.70;7.17;;;;;;;14.65;97.29;95808.69;5030072;28;20223;-67
2021/09/27 06:07:00;;;;;;;6.97;6.57;;;;;;;14.67;97.14;95811.97;5024574;28;20712;-66
2021/09/27 06:09:39;;;;;;;6.83;6.33;;;;;;;14.72;97.29;95804.19;5024284;28;20222;-67
2021/09/27 06:12:19;;;;;;;7.77;7.33;;;;;;;14.77;97.59;95807.06;5022774;28;20251;-66
2021/09/27 06:14:48;;;;;;;6.50;6.00;;;;;;;14.83;96.79;95808.06;5004800;28;20220;-66
2021/09/27 06:17:33;;;;;;;6.33;5.93;;;;;;;14.89;95.96;95810.69;5022242;28;20911;-66
2021/09/27 06:20:09;;;;;;;6.63;6.17;;;;;;;15.00;95.88;95807.44;5005748;28;20256;-65
2021/09/27 06:22:55;;;;;;;8.33;7.53;;;;;;;15.16;94.98;95810.66;5019409;28;20621;-67
2021/09/27 06:25:29;;;;;;;7.40;6.83;;;;;;;15.30;95.04;95817.59;5026879;28;20230;-66
2021/09/27 06:28:07;;;;;;;7.83;7.03;;;;;;;15.41;95.01;95819.59;5032485;28;20601;-66
2021/09/27 06:30:42;;;;;;;6.40;6.00;;;;;;;15.45;94.39;95810.13;5021217;28;20426;-67
2021/09/27 06:33:17;;;;;;;6.97;6.37;;;;;;;15.47;94.73;95808.13;5023000;28;20721;-66
2021/09/27 06:35:50;;;;;;;6.60;6.10;;;;;;;15.48;94.93;95808.94;5015075;28;20606;-67
2021/09/27 06:38:25;;;;;;;8.00;7.13;;;;;;;15.50;94.06;95807.69;5021043;28;20650;-66
2021/09/27 06:40:53;;;;;;;6.13;5.73;;;;;;;15.48;94.15;95809.75;5027349;28;20221;-66
2021/09/27 06:43:24;;;;;;;6.87;6.30;;;;;;;15.46;94.38;95809.16;5045445;28;20219;-65
2021/09/27 06:45:53;;;;;;;8.63;8.07;;;;;;;15.38;94.47;95814.69;5009302;28;20323;-66
2021/09/27 06:48:24;;;;;;;6.00;5.60;;;;;;;15.30;94.45;95807.75;5032557;28;20230;-66
2021/09/27 06:50:54;;;;;;;6.50;6.00;;;;;;;15.28;94.67;95809.00;5025004;28;20249;-66
2021/09/27 06:53:24;;;;;;;7.30;6.73;;;;;;;15.25;94.40;95802.25;5021904;28;20310;-65
2021/09/27 06:55:53;;;;;;;7.13;6.37;;;;;;;15.22;94.11;95810.63;5024160;28;20315;-66
2021/09/27 06:58:23;;;;;;;7.23;6.53;;;;;;;15.22;94.37;95810.63;5022486;28;20712;-67
2021/09/27 07:00:51;;;;;;;7.67;7.17;;;;;;;15.33;94.32;95814.50;5017815;28;20719;-66
2021/09/27 07:03:20;;;;;;;10.20;6.70;;;;;;;15.45;94.06;95804.00;5030898;28;20222;-65
2021/09/27 07:05:48;;;;;;;5.83;5.43;;;;;;;15.58;93.93;95807.44;5022015;28;20310;-66
2021/09/27 07:08:19;;;;;;;6.30;5.80;;;;;;;15.70;93.24;95804.16;5024030;28;20290;-66
2021/09/27 07:10:49;;;;;;;5.23;4.83;;;;;;;15.82;92.87;95805.13;5031971;28;20648;-66
2021/09/27 07:13:18;;;;;;;5.67;5.30;;;;;;;15.88;92.79;95801.59;5025145;28;20251;-66
2021/09/27 07:15:46;;;;;;;6.53;6.00;;;;;;;15.90;93.40;95805.66;5010759;28;20230;-66
2021/09/27 07:18:15;;;;;;;7.27;6.73;;;;;;;16.00;93.10;95802.56;5024325;28;20223;-66
2021/09/27 07:20:43;;;;;;;8.33;7.63;;;;;;;16.06;92.98;95807.03;5023926;28;20305;-66
2021/09/27 07:23:11;;;;;;;6.33;5.90;;;;;;;16.19;92.35;95800.81;5025372;28;20336;-66
2021/09/27 07:25:41;;;;;;;6.43;6.03;;;;;;;16.34;91.82;95797.81;5030152;28;20231;-65
2021/09/27 07:28:09;;;;;;;7.93;7.43;;;;;;;16.39;91.87;95801.47;5022873;28;20281;-66
2021/09/27 07:30:38;;;;;;;6.17;5.67;;;;;;;16.47;91.27;95800.41;5023553;28;20239;-65
2021/09/27 07:33:06;;;;;;;10.87;6.13;;;;;;;16.63;91.33;95799.84;5028186;28;20252;-65
2021/09/27 07:35:35;;;;;;;6.00;5.53;;;;;;;16.72;91.37;95806.56;5022872;28;20315;-67
2021/09/27 07:38:03;;;;;;;8.67;7.97;;;;;;;16.89;91.34;95806.00;5003894;28;20266;-66
2021/09/27 07:40:34;;;;;;;6.53;6.03;;;;;;;17.01;91.28;95804.25;5004939;28;20216;-66
2021/09/27 07:43:05;;;;;;;5.90;5.50;;;;;;;17.10;89.99;95813.59;5017489;28;20307;-67
2021/09/27 07:45:35;;;;;;;6.73;6.33;;;;;;;17.17;89.68;95809.00;4999870;28;20709;-67
2021/09/27 07:48:06;;;;;;;7.40;6.90;;;;;;;17.33;90.37;95803.09;5007050;28;20219;-67
2021/09/27 07:50:34;;;;;;;7.60;7.00;;;;;;;17.58;89.76;95799.53;5001871;28;20636;-66
2021/09/27 07:53:04;;;;;;;7.20;6.70;;;;;;;17.70;89.85;95797.75;5015256;28;20220;-66
2021/09/27 07:55:32;;;;;;;6.77;6.20;;;;;;;17.84;89.33;95803.75;5006168;28;20650;-66
2021/09/27 07:58:00;;;;;;;6.80;6.40;;;;;;;17.99;88.65;95795.31;5004679;28;20720;-67
2021/09/27 08:00:31;;;;;;;7.40;7.00;;;;;;;18.09;88.42;95800.91;5000420;28;20320;-66
2021/09/27 08:02:59;;;;;;;6.00;5.60;;;;;;;18.16;88.22;95796.31;5002958;28;20310;-66
2021/09/27 08:05:30;;;;;;;7.10;6.57;;;;;;;18.26;88.00;95796.56;5000647;28;20232;-67
2021/09/27 08:07:59;;;;;;;6.70;6.27;;;;;;;18.42;87.94;95795.09;5007645;28;20640;-67
2021/09/27 08:10:29;;;;;;;7.03;6.43;;;;;;;18.59;87.28;95790.72;5006012;28;20224;-66
2021/09/27 08:12:58;;;;;;;8.30;7.67;;;;;;;18.86;84.60;95798.31;4987627;28;20233;-66
2021/09/27 08:15:31;;;;;;;8.30;7.57;;;;;;;19.06;84.90;95797.97;4992734;28;20276;-66
2021/09/27 08:18:00;;;;;;;6.97;6.47;;;;;;;19.24;83.81;95792.50;5008334;28;20239;-67
2021/09/27 08:20:32;;;;;;;7.90;7.30;;;;;;;18.99;83.43;95796.22;4992413;28;20406;-67
2021/09/27 08:23:00;;;;;;;6.77;6.27;;;;;;;18.88;83.20;95794.38;4994757;28;20473;-66
2021/09/27 08:25:29;;;;;;;6.33;5.77;;;;;;;18.85;84.49;95792.16;5005700;28;20282;-67
2021/09/27 08:27:59;;;;;;;6.87;6.37;;;;;;;19.14;84.32;95781.56;5001983;28;20686;-65
2021/09/27 08:30:33;;;;;;;6.97;6.47;;;;;;;19.35;82.97;95782.81;4997202;28;20307;-66
2021/09/27 08:33:01;;;;;;;6.60;6.00;;;;;;;19.46;82.63;95785.47;5002255;28;20316;-67
2021/09/27 08:35:30;;;;;;;7.53;6.70;;;;;;;19.38;81.10;95787.69;4988073;28;20236;-67
2021/09/27 08:38:00;;;;;;;7.83;6.80;;;;;;;19.60;81.95;95784.19;5005874;28;20255;-67
2021/09/27 08:40:52;;;;;;;10.13;6.43;;;;;;;19.70;78.90;95785.44;4998568;28;20229;-67
2021/09/27 08:43:40;;;;;;;7.23;5.90;;;;;;;20.02;79.80;95778.53;5014362;28;20252;-66
2021/09/27 08:46:17;;;;;;;6.43;6.03;;;;;;;20.37;79.49;95777.56;4996259;28;20295;-67
2021/09/27 08:48:50;;;;;;;6.57;6.03;;;;;;;20.23;78.20;95784.28;5003511;28;20224;-67
2021/09/27 08:51:18;;;;;;;5.83;5.43;;;;;;;20.33;78.05;95776.44;4991872;28;20439;-67
2021/09/27 08:53:51;;;;;;;6.57;5.27;;;;;;;20.58;76.13;95782.25;4999293;28;20271;-65
2021/09/27 08:56:27;;;;;;;5.53;5.23;;;;;;;20.98;76.39;95770.50;4997046;28;20223;-67
2021/09/27 08:59:03;;;;;;;5.10;4.70;;;;;;;20.74;74.68;95778.72;5006280;28;20251;-67
2021/09/27 09:01:42;;;;;;;5.50;5.10;;;;;;;21.04;74.66;95776.78;5001052;28;20679;-67
2021/09/27 09:04:25;;;;;;;6.10;5.70;;;;;;;21.37;72.25;95778.59;5005520;28;20220;-66
2021/09/27 09:06:57;;;;;;;5.67;5.37;;;;;;;21.49;73.12;95769.38;4999967;28;20250;-67
2021/09/27 09:09:36;;;;;;;5.43;5.13;;;;;;;21.90;73.13;95771.72;4999203;28;20312;-67
2021/09/27 09:12:09;;;;;;;6.40;5.90;;;;;;;22.34;72.18;95775.97;5019571;28;20212;-67
2021/09/27 09:14:44;;;;;;;4.70;4.50;;;;;;;22.62;69.32;95782.13;5017959;28;20590;-66
2021/09/27 09:17:21;;;;;;;5.07;4.77;;;;;;;22.59;68.96;95779.94;5016582;28;20231;-67
2021/09/27 09:19:49;;;;;;;4.50;4.20;;;;;;;22.99;69.50;95774.06;5026518;28;20219;-67
2021/09/27 09:22:25;;;;;;;5.20;4.90;;;;;;;23.35;67.92;95772.41;5027518;28;20247;-67
2021/09/27 09:24:54;;;;;;;4.57;4.27;;;;;;;23.51;66.90;95771.41;5024932;28;20226;-66
2021/09/27 09:27:23;;;;;;;5.17;4.63;;;;;;;23.69;65.36;95774.75;5023475;28;20719;-67
2021/09/27 09:29:52;;;;;;;4.93;4.63;;;;;;;23.72;64.76;95766.13;5023848;28;20223;-67
2021/09/27 09:32:24;;;;;;;3.63;3.43;;;;;;;24.03;65.22;95765.16;5024022;28;20211;-67
2021/09/27 09:35:12;;;;;;;5.37;5.07;;;;;;;23.99;62.88;95766.75;5006893;28;20220;-67
2021/09/27 09:37:47;;;;;;;4.50;4.30;;;;;;;23.62;65.43;95774.19;5019209;28;20226;-67
2021/09/27 09:40:20;;;;;;;3.97;3.67;;;;;;;23.24;65.10;95770.75;5017478;28;20740;-67
2021/09/27 09:42:58;;;;;;;4.30;4.10;;;;;;;22.87;67.50;95774.28;5026827;28;20220;-67
2021/09/27 09:45:31;;;;;;;4.50;4.30;;;;;;;22.65;68.71;95781.59;5022146;28;20223;-66
2021/09/27 09:48:17;;;;;;;4.03;3.73;;;;;;;23.06;67.17;95779.25;5022580;28;20223;-67
2021/09/27 09:50:47;;;;;;;3.97;3.77;;;;;;;23.73;65.96;95781.22;5018270;28;20566;-67
2021/09/27 09:53:22;;;;;;;3.43;3.20;;;;;;;23.98;64.63;95775.94;5022464;28;20599;-67
2021/09/27 09:56:00;;;;;;;4.80;4.47;;;;;;;23.94;64.70;95777.53;5019190;28;20246;-67
2021/09/27 09:58:38;;;;;;;4.00;3.80;;;;;;;24.14;63.76;95779.47;5026778;28;20223;-67
2021/09/27 10:01:16;;;;;;;6.47;4.67;;;;;;;24.46;62.73;95776.59;5016465;28;20227;-68
2021/09/27 10:03:59;;;;;;;4.27;3.97;;;;;;;24.90;61.89;95776.06;5022251;28;20307;-67
2021/09/27 10:06:32;;;;;;;4.83;4.53;;;;;;;25.40;61.31;95777.06;5015751;28;20633;-67
2021/09/27 10:09:05;;;;;;;3.97;3.63;;;;;;;25.21;59.61;95772.25;5018041;28;20223;-67
2021/09/27 10:11:37;;;;;;;4.20;4.00;;;;;;;24.60;61.11;95775.00;5021131;28;20581;-67
2021/09/27 10:14:20;;;;;;;4.13;3.90;;;;;;;24.89;61.46;95769.03;5020070;28;20218;-67
2021/09/27 10:16:51;;;;;;;5.57;4.00;;;;;;;25.47;60.00;95769.47;5023276;28;20308;-67
2021/09/27 10:19:28;;;;;;;3.78;3.58;;;;;;;26.05;57.12;95767.09;5025404;28;20326;-67
2021/09/27 10:22:02;;;;;;;4.80;4.40;;;;;;;26.49;57.50;95763.59;5022154;28;20243;-67
2021/09/27 10:24:35;;;;;;;4.45;4.18;;;;;;;26.13;56.91;95763.81;5021546;28;20248;-67
2021/09/27 10:27:17;;;;;;;4.22;4.03;;;;;;;25.23;59.72;95764.66;5025877;28;20251;-67
2021/09/27 10:29:46;;;;;;;2.92;2.83;;;;;;;25.23;59.65;95764.66;5023920;28;20314;-66
2021/09/27 10:32:25;;;;;;;4.35;4.05;;;;;;;23.66;61.34;95772.56;5014294;28;20466;-66
2021/09/27 10:34:55;;;;;;;4.20;3.90;;;;;;;23.66;63.11;95748.31;5017373;28;20482;-67
2021/09/27 10:37:27;;;;;;;4.30;3.93;;;;;;;24.30;62.15;95750.63;5023144;28;20239;-67
2021/09/27 10:39:58;;;;;;;5.53;3.90;;;;;;;24.98;61.99;95750.41;5017897;28;20254;-66
2021/09/27 10:42:32;;;;;;;4.40;4.10;;;;;;;25.65;58.83;95741.84;5020512;28;20327;-67
2021/09/27 10:45:01;;;;;;;4.50;4.20;;;;;;;25.31;58.26;95749.00;5009098;28;20684;-67
2021/09/27 10:47:34;;;;;;;4.47;4.18;;;;;;;25.77;58.87;95753.16;5023276;28;20246;-68
2021/09/27 10:50:09;;;;;;;4.38;4.18;;;;;;;25.79;59.28;95745.63;5019283;28;20239;-67
2021/09/27 10:52:45;;;;;;;3.83;3.63;;;;;;;26.24;59.13;95751.03;5019136;28;20704;-66
2021/09/27 10:55:19;;;;;;;4.78;4.50;;;;;;;26.89;56.43;95752.47;5023337;28;20473;-67
2021/09/27 10:57:53;;;;;;;4.85;4.50;;;;;;;25.98;57.20;95753.09;5020496;28;20479;-66
2021/09/27 11:00:36;;;;;;;5.68;5.38;;;;;;;25.36;58.70;95754.41;5017961;28;20298;-67
2021/09/27 11:03:15;;;;;;;4.00;3.80;;;;;;;25.51;57.30;95754.31;5016657;28;20218;-67
2021/09/27 11:05:50;;;;;;;4.15;3.95;;;;;;;25.37;59.19;95750.59;5020488;28;20624;-66
2021/09/27 11:08:37;;;;;;;3.50;3.20;;;;;;;25.45;59.76;95756.25;5018140;28;20227;-66
2021/09/27 11:11:18;;;;;;;3.38;3.00;;;;;;;25.65;58.16;95759.97;5018827;28;20708;-67
2021/09/27 11:13:48;;;;;;;3.78;3.58;;;;;;;26.03;56.28;95758.47;5014271;28;20230;-67
2021/09/27 11:16:20;;;;;;;3.95;3.65;;;;;;;25.23;58.06;95763.88;5017842;28;20211;-67
2021/09/27 11:18:57;;;;;;;3.78;3.58;;;;;;;25.01;60.44;95752.56;5012222;28;20465;-67
2021/09/27 11:21:44;;;;;;;4.82;4.53;;;;;;;25.22;59.66;95756.84;5019660;28;20277;-68
2021/09/27 11:24:25;;;;;;;5.32;5.03;;;;;;;25.06;61.01;95748.00;5011959;28;20458;-67
2021/09/27 11:27:10;;;;;;;4.80;4.45;;;;;;;24.44;62.23;95746.38;5011721;28;20568;-66
2021/09/27 11:29:47;;;;;;;4.03;3.72;;;;;;;24.19;64.00;95743.63;5014616;28;20267;-68
2021/09/27 11:32:26;;;;;;;4.80;4.60;;;;;;;23.92;64.18;95744.63;5019862;28;20252;-67
2021/09/27 11:34:57;;;;;;;3.92;3.58;;;;;;;23.92;63.02;95741.94;5014427;28;20310;-67
2021/09/27 11:37:30;;;;;;;4.40;4.20;;;;;;;24.13;63.12;95735.50;5019896;28;20258;-66
2021/09/27 11:40:34;;;;;;;3.80;3.60;;;;;;;24.19;61.53;95732.81;5022078;28;20251;-67
2021/09/27 11:43:23;;;;;;;4.47;3.78;;;;;;;24.28;62.64;95731.22;5014029;28;20250;-67
2021/09/27 11:45:57;;;;;;;3.33;3.13;;;;;;;23.93;65.98;95746.25;5008465;28;20266;-66
2021/09/27 11:48:54;;;;;;;3.53;3.33;;;;;;;23.55;63.29;95745.56;5020840;28;20702;-66
2021/09/27 11:51:39;;;;;;;4.68;4.47;;;;;;;23.44;64.20;95743.09;5014198;28;20246;-67
2021/09/27 11:54:22;;;;;;;4.65;4.30;;;;;;;22.98;65.08;95737.47;5015716;28;20227;-67
2021/09/27 11:56:59;;;;;;;4.40;4.17;;;;;;;22.13;67.13;95739.19;5020641;28;20310;-67
2021/09/27 11:59:35;;;;;;;4.23;3.83;;;;;;;22.01;68.90;95741.19;5013977;28;20351;-67
2021/09/27 12:02:20;;;;;;;4.63;4.27;;;;;;;22.10;68.86;95735.13;5017239;28;20315;-66
2021/09/27 12:05:10;;;;;;;4.00;3.80;;;;;;;22.17;69.93;95729.56;5017636;28;20306;-67
2021/09/27 12:07:43;;;;;;;3.73;3.53;;;;;;;22.47;66.46;95728.19;5021951;28;20228;-67
2021/09/27 12:10:17;;;;;;;3.93;3.73;;;;;;;22.48;67.01;95724.44;5015332;28;20224;-66
2021/09/27 12:12:55;;;;;;;3.50;3.30;;;;;;;22.70;67.32;95727.84;5017376;28;20255;-67
2021/09/27 12:15:25;;;;;;;3.77;3.57;;;;;;;22.82;63.98;95720.38;5013633;28;20223;-67